• Join FlightAware (Why Join?)
  • Login
  • US Flag 
10:25PM EDT


 

Airport Tracker/Info


-or-


 

Live Flight TrackerFlight Track Log ✈ MAS2742 ✈ 23-Feb-2014 ✈ WMKK / KUL - WBGB / BTU

Flight Track Log - Related Links

Times and Time Zones

All times are in EST time to prevent confusion due to time zone crossing. See the MAS2742 flight status page for this flight to view local times or setup timezone preferences in your user account.

Time Position Orientation Groundspeed Altitude Reporting Facility
EST Latitude Longitude Course Direction KTS MPH feet Rate Location/Type
10:12PM 2.8758 101.6547 336° Northwest 224 258 4,500  Level FlightAware ADS-B
10:12PM 2.8868 101.6622 34° Northeast 228 262 5,000 2,160 Climbing FlightAware ADS-B
10:12PM 2.8916 101.6679 50° Northeast 232 267 5,200 2,100 Climbing FlightAware ADS-B
10:12PM 2.8974 101.6807 66° East 239 275 5,700 1,620 Climbing FlightAware ADS-B
10:13PM 2.9058 101.7027 69° East 263 303 6,100 1,680 Climbing FlightAware ADS-B
10:13PM 2.9146 101.7246 68° East 275 316 6,800 2,220 Climbing FlightAware ADS-B
10:13PM 2.9248 101.7494 68° East 283 326 7,600 2,220 Climbing FlightAware ADS-B
10:14PM 2.9345 101.7730 68° East 287 330 8,300 1,800 Climbing FlightAware ADS-B
10:14PM 2.9451 101.7995 68° East 306 352 8,800 1,140 Climbing FlightAware ADS-B
10:14PM 2.9555 101.8261 69° East 327 376 9,100 1,020 Climbing FlightAware ADS-B
10:15PM 2.9663 101.8538 69° East 347 399 9,500 1,500 Climbing FlightAware ADS-B
10:15PM 2.9907 101.9160 69° East 369 425 10,600 2,100 Climbing FlightAware ADS-B
10:16PM 3.0078 101.9595 68° East 367 422 11,900 2,760 Climbing FlightAware ADS-B
10:16PM 3.0330 102.0230 68° East 358 412 13,800 2,820 Climbing FlightAware ADS-B
10:17PM 3.0476 102.0602 68° East 357 411 15,200 2,280 Climbing FlightAware ADS-B
10:18PM 3.0574 102.0848 68° East 361 415 16,600 1,680 Climbing FlightAware ADS-B
10:18PM 3.1052 102.2061 68° East 392 451 17,600 1,200 Climbing FlightAware ADS-B (WMSA / SZB)
10:19PM 3.1265 102.2600 68° East 412 474 18,100 1,380 Climbing FlightAware ADS-B (WMSA / SZB)
10:19PM 3.1511 102.3220 68° East 418 481 19,100 1,800 Climbing FlightAware ADS-B (WMSA / SZB)
10:20PM 3.1681 102.3782 73° East 420 483 20,100 1,860 Climbing FlightAware ADS-B (WMSA / SZB)
10:20PM 3.1800 102.4360 78° East 425 489 21,000 1,560 Climbing FlightAware ADS-B (WMSA / SZB)
10:21PM 3.1938 102.5027 78° East 431 496 21,800 1,500 Climbing FlightAware ADS-B (WMSA / SZB)
10:21PM 3.2057 102.5607 78° East 434 499 22,600 1,560 Climbing FlightAware ADS-B (WMSA / SZB)
10:22PM 3.2179 102.6198 78° East 436 502 23,400 1,440 Climbing FlightAware ADS-B (WMSA / SZB)
10:22PM 3.2304 102.6810 78° East 442 509 24,100 1,200 Climbing FlightAware ADS-B (WMSA / SZB)
10:23PM 3.2446 102.7496 78° East 449 517 24,700 1,020 Climbing FlightAware ADS-B (WMSA / SZB)
10:24PM 3.2577 102.8128 78° East 455 524 25,200 960 Climbing FlightAware ADS-B (WMSA / SZB)
10:24PM 3.2701 102.8730 78° East 461 531 25,700 960 Climbing FlightAware ADS-B (WMSA / SZB)
10:25PM 3.2880 102.9599 78° East 469 540 26,400 960 Climbing FlightAware ADS-B (WMSA / SZB)
10:25PM 3.3050 103.0422 78° East 477 549 27,000 1,020 Climbing FlightAware ADS-B (WMSA / SZB)
10:27PM 3.3689 103.3546 91° East 476 548 29,000 780 Climbing FlightAware ADS-B (WMSA / SZB)
10:28PM 3.3022 103.2484 91° East  Level Estimated
10:28PM 3.3692 103.3563 80° East 476 548 29,000  Level FlightAware ADS-B (WMSA / SZB)
10:28PM 3.3769 103.4236 83° East 472 543 29,000  Level FlightAware ADS-B (WMSA / SZB)
10:29PM 3.3560 103.5196 102° East 468 539 29,000  Level FlightAware ADS-B (WMSA / SZB)
10:32PM 3.3514 103.7543 91° East  Level Estimated
10:33PM 3.3495 103.8495 91° East  Level Estimated
10:34PM 3.3475 103.9446 91° East  Level Estimated
10:35PM 3.3456 104.0398 91° East  Level Estimated
10:36PM 3.3437 104.1349 91° East  Level Estimated
10:37PM 3.3417 104.2301 91° East  Level Estimated
10:38PM 3.3398 104.3252 91° East  Level Estimated
10:39PM 3.3378 104.4204 91° East  Level Estimated
10:40PM 3.3359 104.5155 91° East  Level Estimated
10:41PM 3.3339 104.6107 91° East  Level Estimated
10:42PM 3.3319 104.7058 91° East  Level Estimated
10:43PM 3.3299 104.8010 91° East  Level Estimated
10:44PM 3.3279 104.8961 91° East  Level Estimated
10:45PM 3.3259 104.9913 91° East  Level Estimated
10:46PM 3.3239 105.0864 91° East  Level Estimated
10:47PM 3.3219 105.1816 91° East  Level Estimated
10:48PM 3.3198 105.2767 91° East  Level Estimated
10:49PM 3.3178 105.3719 91° East  Level Estimated
10:50PM 3.3157 105.4670 91° East  Level Estimated
10:51PM 3.3137 105.5621 91° East  Level Estimated
10:52PM 3.3116 105.6573 91° East  Level Estimated
10:53PM 3.3095 105.7524 91° East  Level Estimated
10:54PM 3.3074 105.8476 91° East  Level Estimated
10:55PM 3.3053 105.9427 91° East  Level Estimated
10:56PM 3.3032 106.0378 91° East  Level Estimated
10:57PM 3.3011 106.1330 91° East  Level Estimated
10:58PM 3.2990 106.2281 91° East  Level Estimated
10:59PM 3.2968 106.3233 91° East  Level Estimated
11:00PM 3.2947 106.4184 91° East  Level Estimated
11:01PM 3.2925 106.5135 91° East  Level Estimated
11:02PM 3.2903 106.6087 91° East  Level Estimated
11:03PM 3.2882 106.7038 91° East  Level Estimated
11:04PM 3.2860 106.7990 91° East  Level Estimated
11:05PM 3.2838 106.8941 91° East  Level Estimated
11:06PM 3.2816 106.9892 91° East  Level Estimated
11:07PM 3.2794 107.0844 91° East  Level Estimated
11:08PM 3.2772 107.1795 91° East  Level Estimated
11:09PM 3.2749 107.2747 91° East  Level Estimated
11:10PM 3.2727 107.3698 91° East  Level Estimated
11:11PM 3.2705 107.4649 91° East  Level Estimated
11:12PM 3.2682 107.5601 91° East  Level Estimated
11:13PM 3.2659 107.6552 91° East  Level Estimated
11:14PM 3.2637 107.7504 91° East  Level Estimated
11:15PM 3.2614 107.8455 91° East  Level Estimated
11:16PM 3.2591 107.9406 91° East  Level Estimated
11:17PM 3.2568 108.0357 91° East  Level Estimated
11:18PM 3.2545 108.1309 91° East  Level Estimated
11:19PM 3.2522 108.2260 91° East  Level Estimated
11:20PM 3.2498 108.3211 91° East  Level Estimated
11:21PM 3.2475 108.4163 91° East  Level Estimated
11:22PM 3.2451 108.5114 91° East  Level Estimated
11:23PM 3.2428 108.6065 91° East  Level Estimated
11:24PM 3.2404 108.7017 91° East  Level Estimated
11:25PM 3.2381 108.7968 91° East  Level Estimated
11:26PM 3.2357 108.8919 91° East  Level Estimated
11:27PM 3.2333 108.9870 91° East  Level Estimated
11:28PM 3.2309 109.0822 91° East  Level Estimated
11:29PM 3.2285 109.1773 91° East  Level Estimated
11:30PM 3.2261 109.2724 91° East  Level Estimated
11:31PM 3.2236 109.3676 91° East  Level Estimated
11:32PM 3.2212 109.4627 91° East  Level Estimated
11:33PM 3.2188 109.5578 91° East  Level Estimated
11:34PM 3.2163 109.6529 91° East  Level Estimated
11:35PM 3.2139 109.7481 91° East  Level Estimated
11:36PM 3.2114 109.8432 91° East  Level Estimated
11:37PM 3.2089 109.9383 91° East  Level Estimated
11:38PM 3.2064 110.0334 91° East  Level Estimated
11:39PM 3.2039 110.1286 92° East  Level Estimated
11:40PM 3.2014 110.2237 92° East  Level Estimated
11:41PM 3.1989 110.3188 92° East  Level Estimated
11:42PM 3.1964 110.4139 92° East  Level Estimated
11:43PM 3.1939 110.5090 92° East  Level Estimated
11:44PM 3.1913 110.6042 92° East  Level Estimated
11:45PM 3.1888 110.6993 92° East  Level Estimated
11:46PM 3.1862 110.7944 92° East  Level Estimated
11:47PM 3.1836 110.8895 92° East  Level Estimated
11:48PM 3.1811 110.9846 92° East  Level Estimated
11:49PM 3.1785 111.0798 92° East  Level Estimated
11:50PM 3.1759 111.1749 92° East  Level Estimated
11:51PM 3.1733 111.2700 92° East  Level Estimated
11:52PM 3.1707 111.3651 92° East  Level Estimated
11:53PM 3.1681 111.4602 92° East  Level Estimated
11:54PM 3.1654 111.5554 92° East  Level Estimated
11:55PM 3.1628 111.6505 92° East  Level Estimated
11:56PM 3.1601 111.7456 92° East  Level Estimated
11:57PM 3.1575 111.8407 92° East  Level Estimated
11:58PM 3.1548 111.9358 92° East  Level Estimated
11:59PM 3.1522 112.0309 92° East  Level Estimated
12:00AM 3.1495 112.1261 92° East  Level Estimated
12:01AM 3.1468 112.2212 92° East  Level Estimated
12:02AM 3.1441 112.3163 92° East  Level Estimated
12:03AM 3.1414 112.4114 92° East  Level Estimated
12:04AM 3.1387 112.5065 92° East  Level Estimated
12:05AM 3.1360 112.6016 92° East  Level Estimated
12:06AM 3.1332 112.6967 92° East  Level Estimated
12:07AM 3.1305 112.7918 92° East  Level Estimated